Prairie Grove, Iowa
Current Conditions -  °F | °C
As of 6:53 AM on Wednesday 26 Nov 2014 (Local Time) from KBRL Reporting Station
Broken Clouds Broken Clouds  
Wind Chill: 16°   Ceiling: 11000
Heat Index: 27°   Visibility: 10mi
Dew Point: 24°   Wind: 13mph
Humidity: 89%   Direction: 120°ESE
Pressure: 30.01"   Gusts: NA
Location:  40.8198°N, 91.2162°W
Report Text: KBRL 261253Z AUTO 12011KT 10SM BKN110 M03/M04 A3001 RMK AO2 SLP171 T10281044
Loading
Personal Weather Stations






























Interactive Weather Map New forecast layout! Learn more

10-Day Weather Forecast

Advertisements
Track Severe Weather on mobile